Beckhamville, South Carolina
Current Conditions -  °F | °C
As of 9:15 AM on Thursday 27 Nov 2014 (Local Time) from KLKR Reporting Station
Light Rain Light Rain  
Wind Chill: 40°   Ceiling: Unl
Heat Index: 45°   Visibility: 10mi
Dew Point: 36°   Wind: 9mph
Humidity: 71%   Direction: 270°W
Pressure: 30.08"   Gusts: NA
Location:  34.5686°N, 80.9571°W
Report Text: KLKR 271415Z AUTO 27008KT 10SM -RA CLR 07/02 A3008 RMK AO2
Loading
Personal Weather Stations






























Interactive Weather Map New forecast layout! Learn more

10-Day Weather Forecast

Advertisements
Track Severe Weather on mobile